sensor_id;sensor_type;location;lat;lon;timestamp;P1;durP1;ratioP1;P2;durP2;ratioP2
63189;SDS011;49286;44.460;26.114;2022-12-08T00:01:51;46.60;;;24.00;;
63189;SDS011;49286;44.460;26.114;2022-12-08T00:04:17;48.22;;;26.70;;
63189;SDS011;49286;44.460;26.114;2022-12-08T00:06:42;53.60;;;27.30;;
63189;SDS011;49286;44.460;26.114;2022-12-08T00:12:04;48.75;;;26.33;;
63189;SDS011;49286;44.460;26.114;2022-12-08T00:14:31;53.65;;;27.83;;
63189;SDS011;49286;44.460;26.114;2022-12-08T00:16:57;50.95;;;28.70;;
63189;SDS011;49286;44.460;26.114;2022-12-08T00:19:24;47.35;;;26.08;;
63189;SDS011;49286;44.460;26.114;2022-12-08T00:21:51;48.95;;;29.02;;
63189;SDS011;49286;44.460;26.114;2022-12-08T00:24:17;58.65;;;29.17;;
63189;SDS011;49286;44.460;26.114;2022-12-08T00:26:43;52.70;;;26.67;;
63189;SDS011;49286;44.460;26.114;2022-12-08T00:29:09;49.35;;;27.83;;
63189;SDS011;49286;44.460;26.114;2022-12-08T00:31:35;66.97;;;31.15;;
63189;SDS011;49286;44.460;26.114;2022-12-08T00:34:01;63.22;;;33.20;;
63189;SDS011;49286;44.460;26.114;2022-12-08T00:36:26;53.45;;;26.20;;
63189;SDS011;49286;44.460;26.114;2022-12-08T00:38:52;65.80;;;33.42;;
63189;SDS011;49286;44.460;26.114;2022-12-08T00:41:19;52.83;;;29.88;;
63189;SDS011;49286;44.460;26.114;2022-12-08T00:44:06;57.25;;;29.27;;
63189;SDS011;49286;44.460;26.114;2022-12-08T00:46:32;56.47;;;29.02;;
63189;SDS011;49286;44.460;26.114;2022-12-08T00:48:58;59.50;;;29.77;;
63189;SDS011;49286;44.460;26.114;2022-12-08T00:51:23;49.92;;;26.95;;
63189;SDS011;49286;44.460;26.114;2022-12-08T00:53:49;53.72;;;28.08;;
63189;SDS011;49286;44.460;26.114;2022-12-08T00:56:14;51.92;;;28.35;;
63189;SDS011;49286;44.460;26.114;2022-12-08T00:58:40;60.55;;;30.60;;
63189;SDS011;49286;44.460;26.114;2022-12-08T01:01:09;57.55;;;32.00;;
63189;SDS011;49286;44.460;26.114;2022-12-08T01:03:35;52.83;;;25.15;;
63189;SDS011;49286;44.460;26.114;2022-12-08T01:06:04;56.35;;;26.77;;
63189;SDS011;49286;44.460;26.114;2022-12-08T01:08:31;46.17;;;28.23;;
63189;SDS011;49286;44.460;26.114;2022-12-08T01:11:04;54.65;;;31.55;;
63189;SDS011;49286;44.460;26.114;2022-12-08T01:13:31;56.30;;;30.27;;
63189;SDS011;49286;44.460;26.114;2022-12-08T01:15:57;66.32;;;30.02;;
63189;SDS011;49286;44.460;26.114;2022-12-08T01:18:23;57.63;;;32.80;;
63189;SDS011;49286;44.460;26.114;2022-12-08T01:20:48;59.78;;;30.27;;
63189;SDS011;49286;44.460;26.114;2022-12-08T01:23:14;54.78;;;29.33;;
63189;SDS011;49286;44.460;26.114;2022-12-08T01:25:39;60.40;;;32.03;;
63189;SDS011;49286;44.460;26.114;2022-12-08T01:28:05;57.22;;;30.15;;
63189;SDS011;49286;44.460;26.114;2022-12-08T01:30:30;57.10;;;32.25;;
63189;SDS011;49286;44.460;26.114;2022-12-08T01:32:56;56.53;;;33.25;;
63189;SDS011;49286;44.460;26.114;2022-12-08T01:35:21;64.07;;;31.58;;
63189;SDS011;49286;44.460;26.114;2022-12-08T01:37:48;51.03;;;25.92;;
63189;SDS011;49286;44.460;26.114;2022-12-08T01:40:14;57.65;;;31.20;;
63189;SDS011;49286;44.460;26.114;2022-12-08T01:42:40;55.10;;;29.20;;
63189;SDS011;49286;44.460;26.114;2022-12-08T01:45:24;77.50;;;34.28;;
63189;SDS011;49286;44.460;26.114;2022-12-08T01:47:53;62.42;;;32.05;;
63189;SDS011;49286;44.460;26.114;2022-12-08T01:50:24;60.47;;;29.23;;
63189;SDS011;49286;44.460;26.114;2022-12-08T01:52:56;61.05;;;33.88;;
63189;SDS011;49286;44.460;26.114;2022-12-08T01:55:37;54.38;;;29.92;;
63189;SDS011;49286;44.460;26.114;2022-12-08T01:58:16;58.25;;;27.45;;
63189;SDS011;49286;44.460;26.114;2022-12-08T02:00:44;54.75;;;29.65;;
63189;SDS011;49286;44.460;26.114;2022-12-08T02:03:15;57.90;;;30.48;;
63189;SDS011;49286;44.460;26.114;2022-12-08T02:05:46;63.15;;;28.83;;
63189;SDS011;49286;44.460;26.114;2022-12-08T02:08:12;54.22;;;28.67;;
63189;SDS011;49286;44.460;26.114;2022-12-08T02:10:39;64.68;;;33.42;;
63189;SDS011;49286;44.460;26.114;2022-12-08T02:13:08;65.80;;;33.30;;
63189;SDS011;49286;44.460;26.114;2022-12-08T02:21:22;53.50;;;32.53;;
63189;SDS011;49286;44.460;26.114;2022-12-08T02:32:30;69.32;;;34.47;;
63189;SDS011;49286;44.460;26.114;2022-12-08T02:42:42;61.55;;;32.53;;
63189;SDS011;49286;44.460;26.114;2022-12-08T02:45:13;65.82;;;34.80;;
63189;SDS011;49286;44.460;26.114;2022-12-08T02:47:48;66.97;;;33.10;;
63189;SDS011;49286;44.460;26.114;2022-12-08T02:50:16;62.92;;;31.65;;
63189;SDS011;49286;44.460;26.114;2022-12-08T02:52:43;70.57;;;35.42;;
63189;SDS011;49286;44.460;26.114;2022-12-08T02:55:12;62.22;;;31.45;;
63189;SDS011;49286;44.460;26.114;2022-12-08T03:00:20;51.53;;;28.90;;
63189;SDS011;49286;44.460;26.114;2022-12-08T03:11:16;69.93;;;34.00;;
63189;SDS011;49286;44.460;26.114;2022-12-08T03:13:55;61.17;;;33.58;;
63189;SDS011;49286;44.460;26.114;2022-12-08T03:16:25;78.25;;;35.00;;
63189;SDS011;49286;44.460;26.114;2022-12-08T03:18:58;60.80;;;29.58;;
63189;SDS011;49286;44.460;26.114;2022-12-08T03:21:27;59.78;;;28.00;;
63189;SDS011;49286;44.460;26.114;2022-12-08T03:23:56;64.07;;;33.60;;
63189;SDS011;49286;44.460;26.114;2022-12-08T03:26:32;61.42;;;31.85;;
63189;SDS011;49286;44.460;26.114;2022-12-08T03:29:03;68.47;;;36.38;;
63189;SDS011;49286;44.460;26.114;2022-12-08T03:31:30;68.78;;;33.30;;
63189;SDS011;49286;44.460;26.114;2022-12-08T03:34:00;60.75;;;32.65;;
63189;SDS011;49286;44.460;26.114;2022-12-08T03:36:27;65.30;;;32.25;;
63189;SDS011;49286;44.460;26.114;2022-12-08T03:38:53;61.55;;;30.17;;
63189;SDS011;49286;44.460;26.114;2022-12-08T03:41:19;61.47;;;33.22;;
63189;SDS011;49286;44.460;26.114;2022-12-08T03:43:50;70.90;;;36.80;;
63189;SDS011;49286;44.460;26.114;2022-12-08T03:46:22;82.25;;;36.47;;
63189;SDS011;49286;44.460;26.114;2022-12-08T03:48:48;78.30;;;39.05;;
63189;SDS011;49286;44.460;26.114;2022-12-08T03:51:14;84.82;;;39.30;;
63189;SDS011;49286;44.460;26.114;2022-12-08T03:53:40;76.65;;;35.63;;
63189;SDS011;49286;44.460;26.114;2022-12-08T03:56:39;90.90;;;42.00;;
63189;SDS011;49286;44.460;26.114;2022-12-08T03:58:59;87.20;;;42.20;;
63189;SDS011;49286;44.460;26.114;2022-12-08T04:01:26;80.57;;;35.65;;
63189;SDS011;49286;44.460;26.114;2022-12-08T04:03:51;93.55;;;43.78;;
63189;SDS011;49286;44.460;26.114;2022-12-08T04:06:17;97.20;;;40.08;;
63189;SDS011;49286;44.460;26.114;2022-12-08T04:08:43;97.00;;;37.83;;
63189;SDS011;49286;44.460;26.114;2022-12-08T04:11:09;111.60;;;49.30;;
63189;SDS011;49286;44.460;26.114;2022-12-08T04:13:35;101.93;;;40.63;;
63189;SDS011;49286;44.460;26.114;2022-12-08T04:16:02;96.35;;;41.03;;
63189;SDS011;49286;44.460;26.114;2022-12-08T04:18:28;107.45;;;43.55;;
63189;SDS011;49286;44.460;26.114;2022-12-08T04:20:54;104.72;;;45.17;;
63189;SDS011;49286;44.460;26.114;2022-12-08T04:23:19;95.22;;;39.83;;
63189;SDS011;49286;44.460;26.114;2022-12-08T04:25:45;103.68;;;42.80;;
63189;SDS011;49286;44.460;26.114;2022-12-08T04:28:10;82.45;;;41.85;;
63189;SDS011;49286;44.460;26.114;2022-12-08T04:30:37;103.97;;;45.85;;
63189;SDS011;49286;44.460;26.114;2022-12-08T04:33:02;85.28;;;40.88;;
63189;SDS011;49286;44.460;26.114;2022-12-08T04:35:28;104.13;;;47.53;;
63189;SDS011;49286;44.460;26.114;2022-12-08T04:37:54;121.55;;;47.08;;
63189;SDS011;49286;44.460;26.114;2022-12-08T04:40:19;103.40;;;39.97;;
63189;SDS011;49286;44.460;26.114;2022-12-08T04:42:45;105.60;;;41.03;;
63189;SDS011;49286;44.460;26.114;2022-12-08T04:45:10;100.25;;;44.25;;
63189;SDS011;49286;44.460;26.114;2022-12-08T04:47:36;95.03;;;40.80;;
63189;SDS011;49286;44.460;26.114;2022-12-08T04:50:02;93.10;;;40.22;;
63189;SDS011;49286;44.460;26.114;2022-12-08T04:52:28;104.88;;;41.33;;
63189;SDS011;49286;44.460;26.114;2022-12-08T04:54:54;105.22;;;44.75;;
63189;SDS011;49286;44.460;26.114;2022-12-08T04:57:19;109.18;;;42.58;;
63189;SDS011;49286;44.460;26.114;2022-12-08T04:59:45;118.75;;;45.22;;
63189;SDS011;49286;44.460;26.114;2022-12-08T05:02:10;90.93;;;41.13;;
63189;SDS011;49286;44.460;26.114;2022-12-08T05:04:37;103.00;;;41.15;;
63189;SDS011;49286;44.460;26.114;2022-12-08T05:07:02;91.68;;;39.17;;
63189;SDS011;49286;44.460;26.114;2022-12-08T05:09:28;132.20;;;46.85;;
63189;SDS011;49286;44.460;26.114;2022-12-08T05:11:53;90.93;;;44.45;;
63189;SDS011;49286;44.460;26.114;2022-12-08T05:14:19;112.30;;;41.58;;
63189;SDS011;49286;44.460;26.114;2022-12-08T05:16:45;100.03;;;41.92;;
63189;SDS011;49286;44.460;26.114;2022-12-08T05:19:11;108.75;;;42.92;;
63189;SDS011;49286;44.460;26.114;2022-12-08T05:21:38;135.98;;;46.80;;
63189;SDS011;49286;44.460;26.114;2022-12-08T05:24:04;104.50;;;42.75;;
63189;SDS011;49286;44.460;26.114;2022-12-08T05:26:29;87.95;;;43.33;;
63189;SDS011;49286;44.460;26.114;2022-12-08T05:28:55;88.10;;;41.58;;
63189;SDS011;49286;44.460;26.114;2022-12-08T05:31:21;110.03;;;43.45;;
63189;SDS011;49286;44.460;26.114;2022-12-08T05:33:47;102.00;;;43.05;;
63189;SDS011;49286;44.460;26.114;2022-12-08T05:36:14;114.60;;;41.30;;
63189;SDS011;49286;44.460;26.114;2022-12-08T05:38:40;93.00;;;42.30;;
63189;SDS011;49286;44.460;26.114;2022-12-08T05:41:06;139.57;;;45.88;;
63189;SDS011;49286;44.460;26.114;2022-12-08T05:43:33;103.57;;;39.65;;
63189;SDS011;49286;44.460;26.114;2022-12-08T05:45:58;113.55;;;46.30;;
63189;SDS011;49286;44.460;26.114;2022-12-08T05:48:24;92.15;;;47.40;;
63189;SDS011;49286;44.460;26.114;2022-12-08T05:50:49;92.35;;;45.53;;
63189;SDS011;49286;44.460;26.114;2022-12-08T05:53:16;130.82;;;47.65;;
63189;SDS011;49286;44.460;26.114;2022-12-08T05:55:42;121.38;;;50.88;;
63189;SDS011;49286;44.460;26.114;2022-12-08T05:58:16;97.53;;;45.03;;
63189;SDS011;49286;44.460;26.114;2022-12-08T06:00:43;111.50;;;44.90;;
63189;SDS011;49286;44.460;26.114;2022-12-08T06:03:11;96.95;;;41.58;;
63189;SDS011;49286;44.460;26.114;2022-12-08T06:05:37;96.80;;;42.17;;
63189;SDS011;49286;44.460;26.114;2022-12-08T06:08:04;107.43;;;42.75;;
63189;SDS011;49286;44.460;26.114;2022-12-08T06:10:30;124.47;;;47.65;;
63189;SDS011;49286;44.460;26.114;2022-12-08T06:12:55;103.25;;;49.95;;
63189;SDS011;49286;44.460;26.114;2022-12-08T06:15:21;107.43;;;51.40;;
63189;SDS011;49286;44.460;26.114;2022-12-08T06:17:46;111.63;;;46.40;;
63189;SDS011;49286;44.460;26.114;2022-12-08T06:20:12;116.72;;;45.25;;
63189;SDS011;49286;44.460;26.114;2022-12-08T06:22:37;120.00;;;45.28;;
63189;SDS011;49286;44.460;26.114;2022-12-08T06:25:03;119.80;;;42.35;;
63189;SDS011;49286;44.460;26.114;2022-12-08T06:27:29;92.07;;;40.60;;
63189;SDS011;49286;44.460;26.114;2022-12-08T06:29:55;103.38;;;42.53;;
63189;SDS011;49286;44.460;26.114;2022-12-08T06:32:20;125.80;;;46.92;;
63189;SDS011;49286;44.460;26.114;2022-12-08T06:34:46;103.25;;;51.63;;
63189;SDS011;49286;44.460;26.114;2022-12-08T06:37:11;96.88;;;49.40;;
63189;SDS011;49286;44.460;26.114;2022-12-08T06:39:37;126.00;;;43.80;;
63189;SDS011;49286;44.460;26.114;2022-12-08T06:42:02;88.93;;;38.17;;
63189;SDS011;49286;44.460;26.114;2022-12-08T06:44:46;82.80;;;41.17;;
63189;SDS011;49286;44.460;26.114;2022-12-08T06:47:12;91.30;;;47.30;;
63189;SDS011;49286;44.460;26.114;2022-12-08T06:49:37;150.50;;;49.28;;
63189;SDS011;49286;44.460;26.114;2022-12-08T06:52:03;92.57;;;37.63;;
63189;SDS011;49286;44.460;26.114;2022-12-08T06:54:29;123.15;;;41.42;;
63189;SDS011;49286;44.460;26.114;2022-12-08T06:56:54;99.13;;;39.85;;
63189;SDS011;49286;44.460;26.114;2022-12-08T06:59:20;134.07;;;44.33;;
63189;SDS011;49286;44.460;26.114;2022-12-08T07:01:45;102.30;;;39.55;;
63189;SDS011;49286;44.460;26.114;2022-12-08T07:04:11;100.47;;;38.00;;
63189;SDS011;49286;44.460;26.114;2022-12-08T07:06:36;109.68;;;40.60;;
63189;SDS011;49286;44.460;26.114;2022-12-08T07:09:02;121.05;;;43.17;;
63189;SDS011;49286;44.460;26.114;2022-12-08T07:11:28;75.97;;;37.13;;
63189;SDS011;49286;44.460;26.114;2022-12-08T07:13:57;120.93;;;36.22;;
63189;SDS011;49286;44.460;26.114;2022-12-08T07:16:22;86.15;;;39.63;;
63189;SDS011;49286;44.460;26.114;2022-12-08T07:18:48;101.85;;;39.42;;
63189;SDS011;49286;44.460;26.114;2022-12-08T07:21:14;89.63;;;36.92;;
63189;SDS011;49286;44.460;26.114;2022-12-08T07:23:41;95.22;;;35.97;;
63189;SDS011;49286;44.460;26.114;2022-12-08T07:26:09;74.15;;;35.35;;
63189;SDS011;49286;44.460;26.114;2022-12-08T07:28:36;84.90;;;35.85;;
63189;SDS011;49286;44.460;26.114;2022-12-08T07:31:04;89.47;;;38.63;;
63189;SDS011;49286;44.460;26.114;2022-12-08T07:33:31;94.18;;;38.30;;
63189;SDS011;49286;44.460;26.114;2022-12-08T07:36:01;86.25;;;37.15;;
63189;SDS011;49286;44.460;26.114;2022-12-08T07:38:29;82.57;;;39.85;;
63189;SDS011;49286;44.460;26.114;2022-12-08T07:40:55;76.18;;;36.10;;
63189;SDS011;49286;44.460;26.114;2022-12-08T07:43:21;75.53;;;36.38;;
63189;SDS011;49286;44.460;26.114;2022-12-08T07:45:47;86.95;;;35.95;;
63189;SDS011;49286;44.460;26.114;2022-12-08T07:48:14;70.47;;;38.10;;
63189;SDS011;49286;44.460;26.114;2022-12-08T07:50:40;85.97;;;37.53;;
63189;SDS011;49286;44.460;26.114;2022-12-08T07:53:06;86.57;;;40.67;;
63189;SDS011;49286;44.460;26.114;2022-12-08T07:55:32;93.13;;;41.90;;
63189;SDS011;49286;44.460;26.114;2022-12-08T07:57:57;93.90;;;38.70;;
63189;SDS011;49286;44.460;26.114;2022-12-08T08:00:23;85.65;;;39.80;;
63189;SDS011;49286;44.460;26.114;2022-12-08T08:02:49;116.22;;;43.90;;
63189;SDS011;49286;44.460;26.114;2022-12-08T08:05:14;186.00;;;49.60;;
63189;SDS011;49286;44.460;26.114;2022-12-08T08:07:40;82.00;;;38.90;;
63189;SDS011;49286;44.460;26.114;2022-12-08T08:10:07;108.88;;;40.63;;
63189;SDS011;49286;44.460;26.114;2022-12-08T08:12:34;105.70;;;44.70;;
63189;SDS011;49286;44.460;26.114;2022-12-08T08:15:00;99.35;;;39.75;;
63189;SDS011;49286;44.460;26.114;2022-12-08T08:17:26;88.35;;;36.05;;
63189;SDS011;49286;44.460;26.114;2022-12-08T08:19:53;100.15;;;39.83;;
63189;SDS011;49286;44.460;26.114;2022-12-08T08:22:18;69.88;;;35.90;;
63189;SDS011;49286;44.460;26.114;2022-12-08T08:24:44;84.03;;;33.33;;
63189;SDS011;49286;44.460;26.114;2022-12-08T08:27:09;73.07;;;31.92;;
63189;SDS011;49286;44.460;26.114;2022-12-08T08:29:34;68.55;;;31.20;;
63189;SDS011;49286;44.460;26.114;2022-12-08T08:32:00;65.32;;;31.08;;
63189;SDS011;49286;44.460;26.114;2022-12-08T08:34:27;58.30;;;30.98;;
63189;SDS011;49286;44.460;26.114;2022-12-08T08:36:52;64.32;;;28.35;;
63189;SDS011;49286;44.460;26.114;2022-12-08T08:39:18;80.60;;;39.42;;
63189;SDS011;49286;44.460;26.114;2022-12-08T08:41:43;75.90;;;32.65;;
63189;SDS011;49286;44.460;26.114;2022-12-08T08:44:08;64.80;;;29.52;;
63189;SDS011;49286;44.460;26.114;2022-12-08T08:46:34;57.72;;;27.00;;
63189;SDS011;49286;44.460;26.114;2022-12-08T08:48:59;61.45;;;30.10;;
63189;SDS011;49286;44.460;26.114;2022-12-08T08:51:25;56.17;;;29.00;;
63189;SDS011;49286;44.460;26.114;2022-12-08T08:53:52;73.60;;;33.30;;
63189;SDS011;49286;44.460;26.114;2022-12-08T08:56:18;65.75;;;32.50;;
63189;SDS011;49286;44.460;26.114;2022-12-08T08:58:45;61.83;;;30.73;;
63189;SDS011;49286;44.460;26.114;2022-12-08T09:01:19;57.10;;;32.53;;
63189;SDS011;49286;44.460;26.114;2022-12-08T09:03:49;55.53;;;31.67;;
63189;SDS011;49286;44.460;26.114;2022-12-08T09:06:15;63.08;;;32.03;;
63189;SDS011;49286;44.460;26.114;2022-12-08T09:08:41;60.00;;;30.55;;
63189;SDS011;49286;44.460;26.114;2022-12-08T09:11:08;67.85;;;30.38;;
63189;SDS011;49286;44.460;26.114;2022-12-08T09:13:33;71.63;;;34.08;;
63189;SDS011;49286;44.460;26.114;2022-12-08T09:16:00;61.53;;;33.42;;
63189;SDS011;49286;44.460;26.114;2022-12-08T09:18:27;70.18;;;34.63;;
63189;SDS011;49286;44.460;26.114;2022-12-08T09:20:53;69.05;;;35.45;;
63189;SDS011;49286;44.460;26.114;2022-12-08T09:23:19;60.55;;;31.42;;
63189;SDS011;49286;44.460;26.114;2022-12-08T09:25:44;55.40;;;32.88;;
63189;SDS011;49286;44.460;26.114;2022-12-08T09:28:10;63.40;;;34.15;;
63189;SDS011;49286;44.460;26.114;2022-12-08T09:30:36;60.47;;;30.33;;
63189;SDS011;49286;44.460;26.114;2022-12-08T09:33:02;59.83;;;31.92;;
63189;SDS011;49286;44.460;26.114;2022-12-08T09:35:28;56.28;;;28.95;;
63189;SDS011;49286;44.460;26.114;2022-12-08T09:37:53;46.47;;;31.83;;
63189;SDS011;49286;44.460;26.114;2022-12-08T09:40:20;58.47;;;31.05;;
63189;SDS011;49286;44.460;26.114;2022-12-08T09:45:26;60.30;;;34.33;;
63189;SDS011;49286;44.460;26.114;2022-12-08T09:53:19;50.15;;;29.33;;
63189;SDS011;49286;44.460;26.114;2022-12-08T09:55:50;72.15;;;31.35;;
63189;SDS011;49286;44.460;26.114;2022-12-08T09:58:20;57.20;;;31.40;;
63189;SDS011;49286;44.460;26.114;2022-12-08T10:00:54;61.03;;;32.65;;
63189;SDS011;49286;44.460;26.114;2022-12-08T10:03:20;61.85;;;34.97;;
63189;SDS011;49286;44.460;26.114;2022-12-08T10:06:01;46.35;;;29.52;;
63189;SDS011;49286;44.460;26.114;2022-12-08T10:08:30;45.05;;;25.85;;
63189;SDS011;49286;44.460;26.114;2022-12-08T10:11:12;59.13;;;27.55;;
63189;SDS011;49286;44.460;26.114;2022-12-08T10:16:23;46.35;;;28.00;;
63189;SDS011;49286;44.460;26.114;2022-12-08T10:19:06;52.38;;;30.17;;
63189;SDS011;49286;44.460;26.114;2022-12-08T10:21:34;39.83;;;26.85;;
63189;SDS011;49286;44.460;26.114;2022-12-08T10:24:01;51.70;;;28.10;;
63189;SDS011;49286;44.460;26.114;2022-12-08T10:26:30;48.53;;;28.13;;
63189;SDS011;49286;44.460;26.114;2022-12-08T10:28:57;41.45;;;25.90;;
63189;SDS011;49286;44.460;26.114;2022-12-08T10:31:26;44.22;;;26.10;;
63189;SDS011;49286;44.460;26.114;2022-12-08T10:34:01;51.33;;;30.15;;
63189;SDS011;49286;44.460;26.114;2022-12-08T10:36:46;49.45;;;27.40;;
63189;SDS011;49286;44.460;26.114;2022-12-08T10:45:01;46.97;;;30.52;;
63189;SDS011;49286;44.460;26.114;2022-12-08T10:47:26;49.10;;;29.20;;
63189;SDS011;49286;44.460;26.114;2022-12-08T10:52:42;41.50;;;25.02;;
63189;SDS011;49286;44.460;26.114;2022-12-08T10:55:15;57.80;;;30.75;;
63189;SDS011;49286;44.460;26.114;2022-12-08T10:57:42;44.03;;;28.20;;
63189;SDS011;49286;44.460;26.114;2022-12-08T11:00:14;53.35;;;31.27;;
63189;SDS011;49286;44.460;26.114;2022-12-08T11:02:56;63.15;;;30.52;;
63189;SDS011;49286;44.460;26.114;2022-12-08T11:05:25;42.90;;;25.52;;
63189;SDS011;49286;44.460;26.114;2022-12-08T11:07:54;48.70;;;28.58;;
63189;SDS011;49286;44.460;26.114;2022-12-08T11:10:26;46.58;;;27.60;;
63189;SDS011;49286;44.460;26.114;2022-12-08T11:12:58;41.20;;;23.13;;
63189;SDS011;49286;44.460;26.114;2022-12-08T11:15:25;48.40;;;25.80;;
63189;SDS011;49286;44.460;26.114;2022-12-08T11:20:27;43.50;;;28.02;;
63189;SDS011;49286;44.460;26.114;2022-12-08T11:22:55;41.28;;;26.35;;
63189;SDS011;49286;44.460;26.114;2022-12-08T11:27:51;43.30;;;27.67;;
63189;SDS011;49286;44.460;26.114;2022-12-08T11:32:48;45.47;;;27.15;;
63189;SDS011;49286;44.460;26.114;2022-12-08T11:35:23;54.55;;;29.58;;
63189;SDS011;49286;44.460;26.114;2022-12-08T11:37:52;51.22;;;30.33;;
63189;SDS011;49286;44.460;26.114;2022-12-08T11:40:38;50.95;;;30.40;;
63189;SDS011;49286;44.460;26.114;2022-12-08T11:43:14;52.13;;;29.30;;
63189;SDS011;49286;44.460;26.114;2022-12-08T11:45:51;48.03;;;30.13;;
63189;SDS011;49286;44.460;26.114;2022-12-08T11:48:25;52.08;;;32.85;;
63189;SDS011;49286;44.460;26.114;2022-12-08T11:56:55;43.60;;;25.05;;
63189;SDS011;49286;44.460;26.114;2022-12-08T12:02:26;41.45;;;25.65;;
63189;SDS011;49286;44.460;26.114;2022-12-08T12:05:07;48.33;;;30.52;;
63189;SDS011;49286;44.460;26.114;2022-12-08T12:08:04;58.20;;;34.28;;
63189;SDS011;49286;44.460;26.114;2022-12-08T12:10:39;45.67;;;27.10;;
63189;SDS011;49286;44.460;26.114;2022-12-08T12:18:40;64.20;;;36.60;;
63189;SDS011;49286;44.460;26.114;2022-12-08T12:21:12;55.40;;;31.15;;
63189;SDS011;49286;44.460;26.114;2022-12-08T12:23:48;50.70;;;31.92;;
63189;SDS011;49286;44.460;26.114;2022-12-08T12:26:25;58.13;;;34.40;;
63189;SDS011;49286;44.460;26.114;2022-12-08T12:28:57;58.40;;;33.78;;
63189;SDS011;49286;44.460;26.114;2022-12-08T12:31:27;68.35;;;36.63;;
63189;SDS011;49286;44.460;26.114;2022-12-08T12:34:35;60.83;;;33.35;;
63189;SDS011;49286;44.460;26.114;2022-12-08T12:37:05;54.42;;;29.85;;
63189;SDS011;49286;44.460;26.114;2022-12-08T12:53:00;58.47;;;32.40;;
63189;SDS011;49286;44.460;26.114;2022-12-08T12:58:20;53.67;;;32.13;;
63189;SDS011;49286;44.460;26.114;2022-12-08T13:03:32;56.10;;;29.77;;
63189;SDS011;49286;44.460;26.114;2022-12-08T13:05:58;44.40;;;27.88;;
63189;SDS011;49286;44.460;26.114;2022-12-08T13:08:24;52.10;;;34.85;;
63189;SDS011;49286;44.460;26.114;2022-12-08T13:11:04;53.72;;;32.55;;
63189;SDS011;49286;44.460;26.114;2022-12-08T13:13:33;43.65;;;26.83;;
63189;SDS011;49286;44.460;26.114;2022-12-08T13:16:23;47.25;;;31.52;;
63189;SDS011;49286;44.460;26.114;2022-12-08T13:18:59;48.30;;;30.27;;
63189;SDS011;49286;44.460;26.114;2022-12-08T13:21:31;51.33;;;34.03;;
63189;SDS011;49286;44.460;26.114;2022-12-08T13:24:26;60.92;;;38.42;;
63189;SDS011;49286;44.460;26.114;2022-12-08T13:29:29;56.88;;;31.77;;
63189;SDS011;49286;44.460;26.114;2022-12-08T13:31:57;48.85;;;31.25;;
63189;SDS011;49286;44.460;26.114;2022-12-08T13:34:30;58.47;;;41.75;;
63189;SDS011;49286;44.460;26.114;2022-12-08T13:42:28;50.72;;;32.08;;
63189;SDS011;49286;44.460;26.114;2022-12-08T13:47:33;61.55;;;40.88;;
63189;SDS011;49286;44.460;26.114;2022-12-08T13:50:12;75.25;;;44.05;;
63189;SDS011;49286;44.460;26.114;2022-12-08T13:52:44;52.88;;;32.88;;
63189;SDS011;49286;44.460;26.114;2022-12-08T13:55:34;54.63;;;31.42;;
63189;SDS011;49286;44.460;26.114;2022-12-08T13:58:04;53.83;;;35.42;;
63189;SDS011;49286;44.460;26.114;2022-12-08T14:00:30;66.53;;;43.95;;
63189;SDS011;49286;44.460;26.114;2022-12-08T14:02:56;62.83;;;43.35;;
63189;SDS011;49286;44.460;26.114;2022-12-08T14:05:24;60.33;;;40.47;;
63189;SDS011;49286;44.460;26.114;2022-12-08T14:07:52;64.15;;;41.63;;
63189;SDS011;49286;44.460;26.114;2022-12-08T14:13:00;64.80;;;42.40;;
63189;SDS011;49286;44.460;26.114;2022-12-08T14:17:57;49.15;;;28.63;;
63189;SDS011;49286;44.460;26.114;2022-12-08T14:22:55;63.72;;;40.10;;
63189;SDS011;49286;44.460;26.114;2022-12-08T14:25:23;64.88;;;38.75;;
63189;SDS011;49286;44.460;26.114;2022-12-08T14:27:54;49.00;;;33.70;;
63189;SDS011;49286;44.460;26.114;2022-12-08T14:30:27;72.28;;;43.58;;
63189;SDS011;49286;44.460;26.114;2022-12-08T14:32:56;60.70;;;40.05;;
63189;SDS011;49286;44.460;26.114;2022-12-08T14:37:57;44.67;;;29.05;;
63189;SDS011;49286;44.460;26.114;2022-12-08T14:40:34;53.75;;;33.75;;
63189;SDS011;49286;44.460;26.114;2022-12-08T14:53:39;45.83;;;31.08;;
63189;SDS011;49286;44.460;26.114;2022-12-08T14:56:21;53.35;;;37.17;;
63189;SDS011;49286;44.460;26.114;2022-12-08T15:01:41;48.05;;;24.83;;
63189;SDS011;49286;44.460;26.114;2022-12-08T15:04:17;51.78;;;36.78;;
63189;SDS011;49286;44.460;26.114;2022-12-08T15:12:21;60.20;;;38.40;;
63189;SDS011;49286;44.460;26.114;2022-12-08T15:14:57;48.22;;;29.33;;
63189;SDS011;49286;44.460;26.114;2022-12-08T15:19:54;55.78;;;37.95;;
63189;SDS011;49286;44.460;26.114;2022-12-08T15:22:21;46.97;;;29.73;;
63189;SDS011;49286;44.460;26.114;2022-12-08T15:24:47;56.78;;;39.03;;
63189;SDS011;49286;44.460;26.114;2022-12-08T15:27:20;47.17;;;30.85;;
63189;SDS011;49286;44.460;26.114;2022-12-08T15:29:47;48.40;;;28.95;;
63189;SDS011;49286;44.460;26.114;2022-12-08T15:32:18;55.88;;;37.25;;
63189;SDS011;49286;44.460;26.114;2022-12-08T15:34:45;60.53;;;40.35;;
63189;SDS011;49286;44.460;26.114;2022-12-08T15:37:19;58.58;;;37.05;;
63189;SDS011;49286;44.460;26.114;2022-12-08T15:39:46;38.25;;;27.33;;
63189;SDS011;49286;44.460;26.114;2022-12-08T15:42:12;41.75;;;24.15;;
63189;SDS011;49286;44.460;26.114;2022-12-08T15:44:38;55.00;;;36.47;;
63189;SDS011;49286;44.460;26.114;2022-12-08T15:47:04;55.67;;;36.38;;
63189;SDS011;49286;44.460;26.114;2022-12-08T15:49:30;49.75;;;32.28;;
63189;SDS011;49286;44.460;26.114;2022-12-08T15:51:56;46.80;;;29.77;;
63189;SDS011;49286;44.460;26.114;2022-12-08T15:54:22;59.70;;;38.20;;
63189;SDS011;49286;44.460;26.114;2022-12-08T15:56:54;59.17;;;37.72;;
63189;SDS011;49286;44.460;26.114;2022-12-08T15:59:22;60.08;;;40.55;;
63189;SDS011;49286;44.460;26.114;2022-12-08T16:01:49;50.22;;;29.50;;
63189;SDS011;49286;44.460;26.114;2022-12-08T16:04:17;69.60;;;44.30;;
63189;SDS011;49286;44.460;26.114;2022-12-08T16:06:45;59.92;;;34.15;;
63189;SDS011;49286;44.460;26.114;2022-12-08T16:09:16;55.42;;;36.50;;
63189;SDS011;49286;44.460;26.114;2022-12-08T16:11:56;52.80;;;31.13;;
63189;SDS011;49286;44.460;26.114;2022-12-08T16:14:39;68.88;;;32.15;;
63189;SDS011;49286;44.460;26.114;2022-12-08T16:17:11;58.88;;;33.17;;
63189;SDS011;49286;44.460;26.114;2022-12-08T16:19:38;54.58;;;35.35;;
63189;SDS011;49286;44.460;26.114;2022-12-08T16:22:04;51.53;;;32.95;;
63189;SDS011;49286;44.460;26.114;2022-12-08T16:24:45;70.55;;;40.97;;
63189;SDS011;49286;44.460;26.114;2022-12-08T16:27:16;67.93;;;43.30;;
63189;SDS011;49286;44.460;26.114;2022-12-08T16:29:46;48.03;;;30.42;;
63189;SDS011;49286;44.460;26.114;2022-12-08T16:32:12;53.05;;;33.30;;
63189;SDS011;49286;44.460;26.114;2022-12-08T16:34:38;59.35;;;30.02;;